sensor_id;sensor_type;location;lat;lon;timestamp;pressure;altitude;pressure_sealevel;temperature;humidity
49801;BME280;35698;50.232;30.540;2023-02-28T00:00:17;101630.00;;;1.09;73.70
49801;BME280;35698;50.232;30.540;2023-02-28T00:01:22;101636.91;;;1.01;73.15
49801;BME280;35698;50.232;30.540;2023-02-28T00:02:25;101632.53;;;0.92;72.74
49801;BME280;35698;50.232;30.540;2023-02-28T00:03:29;101633.41;;;0.94;73.43
49801;BME280;35698;50.232;30.540;2023-02-28T00:04:32;101637.73;;;0.92;72.75
49801;BME280;35698;50.232;30.540;2023-02-28T00:05:43;101637.80;;;1.08;72.91
49801;BME280;35698;50.232;30.540;2023-02-28T00:06:46;101642.10;;;0.99;72.91
49801;BME280;35698;50.232;30.540;2023-02-28T00:07:58;101643.89;;;1.14;72.78
49801;BME280;35698;50.232;30.540;2023-02-28T00:09:01;101646.38;;;0.87;72.48
49801;BME280;35698;50.232;30.540;2023-02-28T00:10:15;101642.97;;;0.98;73.06
49801;BME280;35698;50.232;30.540;2023-02-28T00:11:20;101640.33;;;0.85;72.50
49801;BME280;35698;50.232;30.540;2023-02-28T00:12:32;101642.92;;;0.91;72.80
49801;BME280;35698;50.232;30.540;2023-02-28T00:13:37;101645.50;;;0.79;73.16
49801;BME280;35698;50.232;30.540;2023-02-28T00:14:40;101638.58;;;0.81;73.56
49801;BME280;35698;50.232;30.540;2023-02-28T00:18:40;101638.62;;;0.96;73.20
49801;BME280;35698;50.232;30.540;2023-02-28T00:19:44;101640.33;;;0.91;72.68
49801;BME280;35698;50.232;30.540;2023-02-28T00:20:55;101640.40;;;1.08;73.11
49801;BME280;35698;50.232;30.540;2023-02-28T00:21:58;101644.70;;;1.01;73.12
49801;BME280;35698;50.232;30.540;2023-02-28T00:23:09;101643.89;;;1.14;72.96
49801;BME280;35698;50.232;30.540;2023-02-28T00:24:13;101649.09;;;1.11;73.18
49801;BME280;35698;50.232;30.540;2023-02-28T00:25:19;101644.78;;;1.18;73.15
49801;BME280;35698;50.232;30.540;2023-02-28T00:26:30;101653.49;;;1.29;71.83
49801;BME280;35698;50.232;30.540;2023-02-28T00:27:35;101649.12;;;1.20;72.58
49801;BME280;35698;50.232;30.540;2023-02-28T00:28:38;101646.54;;;1.25;72.45
49801;BME280;35698;50.232;30.540;2023-02-28T00:29:49;101650.06;;;1.44;72.29
49801;BME280;35698;50.232;30.540;2023-02-28T00:30:53;101650.91;;;1.37;72.18
49801;BME280;35698;50.232;30.540;2023-02-28T00:32:04;101646.61;;;1.49;71.30
49801;BME280;35698;50.232;30.540;2023-02-28T00:33:08;101647.45;;;1.39;71.18
49801;BME280;35698;50.232;30.540;2023-02-28T00:34:19;101650.94;;;1.46;71.89
49801;BME280;35698;50.232;30.540;2023-02-28T00:35:23;101650.03;;;1.31;71.30
49801;BME280;35698;50.232;30.540;2023-02-28T00:36:34;101645.73;;;1.46;71.26
49801;BME280;35698;50.232;30.540;2023-02-28T00:37:37;101645.70;;;1.37;70.85
49801;BME280;35698;50.232;30.540;2023-02-28T00:38:48;101647.48;;;1.50;71.19
49801;BME280;35698;50.232;30.540;2023-02-28T00:39:52;101645.72;;;1.40;70.66
49801;BME280;35698;50.232;30.540;2023-02-28T00:41:04;101644.01;;;1.51;70.60
49801;BME280;35698;50.232;30.540;2023-02-28T00:42:08;101643.98;;;1.42;71.12
49801;BME280;35698;50.232;30.540;2023-02-28T00:43:19;101644.89;;;1.59;71.36
49801;BME280;35698;50.232;30.540;2023-02-28T00:44:22;101640.54;;;1.52;71.39
49801;BME280;35698;50.232;30.540;2023-02-28T00:45:44;101644.91;;;1.63;70.67
49801;BME280;35698;50.232;30.540;2023-02-28T00:46:47;101644.02;;;1.54;70.82
49801;BME280;35698;50.232;30.540;2023-02-28T00:47:51;101643.15;;;1.55;70.85
49801;BME280;35698;50.232;30.540;2023-02-28T00:48:55;101641.42;;;1.57;71.22
49801;BME280;35698;50.232;30.540;2023-02-28T00:49:58;101639.69;;;1.59;71.36
49801;BME280;35698;50.232;30.540;2023-02-28T00:51:10;101635.36;;;1.72;71.54
49801;BME280;35698;50.232;30.540;2023-02-28T00:52:13;101636.22;;;1.63;70.87
49801;BME280;35698;50.232;30.540;2023-02-28T00:53:24;101630.13;;;1.75;70.85
49801;BME280;35698;50.232;30.540;2023-02-28T00:54:28;101631.88;;;1.65;71.12
49801;BME280;35698;50.232;30.540;2023-02-28T00:55:40;101631.00;;;1.77;70.58
49801;BME280;35698;50.232;30.540;2023-02-28T00:56:43;101633.63;;;1.68;70.84
49801;BME280;35698;50.232;30.540;2023-02-28T00:57:54;101634.47;;;1.80;70.47
49801;BME280;35698;50.232;30.540;2023-02-28T00:58:57;101624.94;;;1.67;70.35
49801;BME280;35698;50.232;30.540;2023-02-28T01:00:01;101634.49;;;1.70;70.28
49801;BME280;35698;50.232;30.540;2023-02-28T01:01:12;101629.27;;;1.82;70.07
49801;BME280;35698;50.232;30.540;2023-02-28T01:02:15;101620.59;;;1.66;70.24
49801;BME280;35698;50.232;30.540;2023-02-28T01:03:19;101623.20;;;1.72;70.10
49801;BME280;35698;50.232;30.540;2023-02-28T01:04:41;101622.31;;;1.75;69.91
49801;BME280;35698;50.232;30.540;2023-02-28T01:05:52;101631.88;;;1.86;69.86
49801;BME280;35698;50.232;30.540;2023-02-28T01:06:56;101630.13;;;1.75;69.94
49801;BME280;35698;50.232;30.540;2023-02-28T01:07:59;101631.86;;;1.77;70.12
49801;BME280;35698;50.232;30.540;2023-02-28T01:09:20;101635.34;;;1.79;70.13
49801;BME280;35698;50.232;30.540;2023-02-28T01:10:31;101638.83;;;1.87;69.38
49801;BME280;35698;50.232;30.540;2023-02-28T01:11:35;101628.39;;;1.74;69.44
49801;BME280;35698;50.232;30.540;2023-02-28T01:12:38;101630.16;;;1.73;69.45
49801;BME280;35698;50.232;30.540;2023-02-28T01:14:00;101627.55;;;1.72;69.44
49801;BME280;35698;50.232;30.540;2023-02-28T01:15:11;101636.20;;;1.77;69.40
49801;BME280;35698;50.232;30.540;2023-02-28T01:16:16;101631.02;;;1.63;69.96
49801;BME280;35698;50.232;30.540;2023-02-28T01:17:19;101628.41;;;1.68;70.13
49801;BME280;35698;50.232;30.540;2023-02-28T01:18:41;101631.02;;;1.71;69.80
49801;BME280;35698;50.232;30.540;2023-02-28T01:19:54;101634.48;;;1.82;70.23
49801;BME280;35698;50.232;30.540;2023-02-28T01:20:57;101639.70;;;1.67;69.77
49801;BME280;35698;50.232;30.540;2023-02-28T01:22:08;101632.75;;;1.67;69.44
49801;BME280;35698;50.232;30.540;2023-02-28T01:23:12;101654.44;;;1.54;69.87
49801;BME280;35698;50.232;30.540;2023-02-28T01:24:23;101650.11;;;1.63;69.99
49801;BME280;35698;50.232;30.540;2023-02-28T01:25:26;101646.58;;;1.37;69.66
49801;BME280;35698;50.232;30.540;2023-02-28T01:26:37;101645.73;;;1.43;69.77
49801;BME280;35698;50.232;30.540;2023-02-28T01:27:40;101653.50;;;1.32;70.21
49801;BME280;35698;50.232;30.540;2023-02-28T01:28:44;101649.17;;;1.36;70.64
49801;BME280;35698;50.232;30.540;2023-02-28T01:30:07;101650.92;;;1.38;70.65
49801;BME280;35698;50.232;30.540;2023-02-28T01:31:19;101655.29;;;1.48;70.85
49801;BME280;35698;50.232;30.540;2023-02-28T01:32:24;101656.13;;;1.37;70.71
49801;BME280;35698;50.232;30.540;2023-02-28T01:33:28;101652.66;;;1.38;70.63
49801;BME280;35698;50.232;30.540;2023-02-28T01:34:33;101662.20;;;1.39;70.77
49801;BME280;35698;50.232;30.540;2023-02-28T01:35:44;101654.42;;;1.49;70.30
49801;BME280;35698;50.232;30.540;2023-02-28T01:36:48;101658.72;;;1.35;70.10
49801;BME280;35698;50.232;30.540;2023-02-28T01:37:51;101654.37;;;1.33;70.30
49801;BME280;35698;50.232;30.540;2023-02-28T01:38:55;101652.63;;;1.31;70.59
49801;BME280;35698;50.232;30.540;2023-02-28T01:39:58;101654.37;;;1.34;71.21
49801;BME280;35698;50.232;30.540;2023-02-28T01:41:14;101658.76;;;1.47;71.23
49801;BME280;35698;50.232;30.540;2023-02-28T01:42:17;101658.73;;;1.38;70.75
49801;BME280;35698;50.232;30.540;2023-02-28T01:43:24;101656.13;;;1.41;71.00
49801;BME280;35698;50.232;30.540;2023-02-28T01:45:59;101650.07;;;1.45;70.98
49801;BME280;35698;50.232;30.540;2023-02-28T01:47:10;101644.88;;;1.51;70.92
49801;BME280;35698;50.232;30.540;2023-02-28T01:48:13;101644.86;;;1.44;71.20
49801;BME280;35698;50.232;30.540;2023-02-28T01:49:17;101647.47;;;1.47;71.23
49801;BME280;35698;50.232;30.540;2023-02-28T01:50:24;101646.61;;;1.49;71.40
49801;BME280;35698;50.232;30.540;2023-02-28T01:51:45;101645.77;;;1.64;71.52
49801;BME280;35698;50.232;30.540;2023-02-28T01:52:50;101647.49;;;1.54;71.51
49801;BME280;35698;50.232;30.540;2023-02-28T01:53:59;101648.36;;;1.55;71.08
49801;BME280;35698;50.232;30.540;2023-02-28T01:55:12;101650.12;;;1.67;70.69
49801;BME280;35698;50.232;30.540;2023-02-28T01:56:19;101647.48;;;1.53;70.50
49801;BME280;35698;50.232;30.540;2023-02-28T01:57:26;101644.02;;;1.52;70.28
49801;BME280;35698;50.232;30.540;2023-02-28T01:58:38;101649.25;;;1.63;70.52
49801;BME280;35698;50.232;30.540;2023-02-28T01:59:44;101649.22;;;1.54;71.17
49801;BME280;35698;50.232;30.540;2023-02-28T02:00:56;101646.65;;;1.69;71.56
49801;BME280;35698;50.232;30.540;2023-02-28T02:02:00;101654.45;;;1.58;70.50
49801;BME280;35698;50.232;30.540;2023-02-28T02:03:09;101657.91;;;1.57;70.69
49801;BME280;35698;50.232;30.540;2023-02-28T02:04:19;101653.58;;;1.58;71.04
49801;BME280;35698;50.232;30.540;2023-02-28T02:05:27;101657.05;;;1.58;70.85
49801;BME280;35698;50.232;30.540;2023-02-28T02:06:39;101660.52;;;1.59;71.30
49801;BME280;35698;50.232;30.540;2023-02-28T02:08:01;101648.39;;;1.73;71.21
49801;BME280;35698;50.232;30.540;2023-02-28T02:09:03;101657.06;;;1.63;70.57
49801;BME280;35698;50.232;30.540;2023-02-28T02:11:22;101661.41;;;1.67;70.88
49801;BME280;35698;50.232;30.540;2023-02-28T02:14:14;101657.05;;;1.78;69.83
49801;BME280;35698;50.232;30.540;2023-02-28T02:30:22;101664.88;;;1.80;69.45
49801;BME280;35698;50.232;30.540;2023-02-28T02:37:18;101674.44;;;1.69;68.91
49801;BME280;35698;50.232;30.540;2023-02-28T02:45:55;101674.41;;;1.59;69.22
49801;BME280;35698;50.232;30.540;2023-02-28T02:50:06;101683.95;;;1.56;69.39
49801;BME280;35698;50.232;30.540;2023-02-28T02:51:33;101682.23;;;1.59;69.66
49801;BME280;35698;50.232;30.540;2023-02-28T02:52:41;101686.53;;;1.45;70.02
49801;BME280;35698;50.232;30.540;2023-02-28T02:55:11;101684.77;;;1.40;70.68
49801;BME280;35698;50.232;30.540;2023-02-28T02:56:26;101689.14;;;1.47;70.60
49801;BME280;35698;50.232;30.540;2023-02-28T02:57:36;101689.07;;;1.28;70.88
49801;BME280;35698;50.232;30.540;2023-02-28T02:58:49;101688.21;;;1.31;71.84
49801;BME280;35698;50.232;30.540;2023-02-28T02:59:55;101698.56;;;1.16;72.43
49801;BME280;35698;50.232;30.540;2023-02-28T03:01:11;101695.98;;;1.23;72.80
49801;BME280;35698;50.232;30.540;2023-02-28T03:02:16;101691.59;;;1.09;73.42
49801;BME280;35698;50.232;30.540;2023-02-28T03:03:21;101697.66;;;1.09;74.10
49801;BME280;35698;50.232;30.540;2023-02-28T03:04:46;101693.33;;;1.10;73.97
49801;BME280;35698;50.232;30.540;2023-02-28T03:06:00;101689.91;;;1.20;73.91
49801;BME280;35698;50.232;30.540;2023-02-28T03:07:04;101694.18;;;1.07;74.13
49801;BME280;35698;50.232;30.540;2023-02-28T03:08:07;101690.70;;;1.07;73.93
49801;BME280;35698;50.232;30.540;2023-02-28T03:09:28;101701.12;;;1.07;74.34
49801;BME280;35698;50.232;30.540;2023-02-28T03:10:42;101697.70;;;1.18;75.09
49801;BME280;35698;50.232;30.540;2023-02-28T03:12:12;101698.56;;;1.17;74.93
49801;BME280;35698;50.232;30.540;2023-02-28T03:18:10;101702.85;;;1.06;73.45
49801;BME280;35698;50.232;30.540;2023-02-28T03:19:44;101695.88;;;0.99;73.22
49801;BME280;35698;50.232;30.540;2023-02-28T03:24:16;101705.34;;;0.80;72.74
49801;BME280;35698;50.232;30.540;2023-02-28T03:27:01;101705.28;;;0.71;72.30
49801;BME280;35698;50.232;30.540;2023-02-28T03:29:40;101702.75;;;0.88;73.93
49801;BME280;35698;50.232;30.540;2023-02-28T03:31:25;101706.20;;;0.79;73.44
49801;BME280;35698;50.232;30.540;2023-02-28T03:33:03;101710.52;;;0.77;72.36
49801;BME280;35698;50.232;30.540;2023-02-28T03:34:26;101708.81;;;0.81;73.03
49801;BME280;35698;50.232;30.540;2023-02-28T03:35:59;101710.45;;;0.67;73.62
49801;BME280;35698;50.232;30.540;2023-02-28T03:37:25;101709.57;;;0.64;73.05
49801;BME280;35698;50.232;30.540;2023-02-28T03:40:12;101717.41;;;0.71;73.83
49801;BME280;35698;50.232;30.540;2023-02-28T03:42:02;101724.40;;;0.78;73.28
49801;BME280;35698;50.232;30.540;2023-02-28T03:43:18;101721.78;;;0.76;72.74
49801;BME280;35698;50.232;30.540;2023-02-28T03:44:30;101725.98;;;0.57;73.54
49801;BME280;35698;50.232;30.540;2023-02-28T03:46:12;101721.65;;;0.56;72.88
49801;BME280;35698;50.232;30.540;2023-02-28T03:53:04;101724.91;;;0.31;74.30
49801;BME280;35698;50.232;30.540;2023-02-28T03:54:12;101729.25;;;0.32;74.82
49801;BME280;35698;50.232;30.540;2023-02-28T03:55:28;101727.61;;;0.43;74.81
49801;BME280;35698;50.232;30.540;2023-02-28T04:01:09;101732.56;;;0.14;75.86
49801;BME280;35698;50.232;30.540;2023-02-28T04:02:38;101734.31;;;0.17;77.01
49801;BME280;35698;50.232;30.540;2023-02-28T04:04:01;101730.77;;;0.09;76.59
49801;BME280;35698;50.232;30.540;2023-02-28T04:05:06;101730.77;;;0.09;76.01
49801;BME280;35698;50.232;30.540;2023-02-28T04:06:19;101731.58;;;-0.02;76.75
49801;BME280;35698;50.232;30.540;2023-02-28T04:07:42;101733.31;;;0.03;77.48
49801;BME280;35698;50.232;30.540;2023-02-28T04:08:45;101737.72;;;0.10;76.54
49801;BME280;35698;50.232;30.540;2023-02-28T04:09:49;101737.77;;;0.16;77.04
49801;BME280;35698;50.232;30.540;2023-02-28T04:11:15;101737.77;;;0.16;76.11
49801;BME280;35698;50.232;30.540;2023-02-28T04:12:16;101736.71;;;-0.08;76.01
49801;BME280;35698;50.232;30.540;2023-02-28T04:13:19;101733.29;;;-0.04;76.49
49801;BME280;35698;50.232;30.540;2023-02-28T04:14:23;101735.85;;;-0.07;76.60
49801;BME280;35698;50.232;30.540;2023-02-28T04:15:27;101734.98;;;-0.07;77.20
49801;BME280;35698;50.232;30.540;2023-02-28T04:16:41;101736.80;;;0.05;77.05
49801;BME280;35698;50.232;30.540;2023-02-28T04:17:44;101739.13;;;-0.24;77.05
49801;BME280;35698;50.232;30.540;2023-02-28T04:18:48;101746.13;;;-0.17;77.39
49801;BME280;35698;50.232;30.540;2023-02-28T04:19:51;101740.89;;;-0.22;78.13
49801;BME280;35698;50.232;30.540;2023-02-28T04:21:02;101744.59;;;0.05;77.46
49801;BME280;35698;50.232;30.540;2023-02-28T04:22:07;101740.22;;;0.00;76.79
49801;BME280;35698;50.232;30.540;2023-02-28T04:23:11;101735.92;;;-0.01;75.52
49801;BME280;35698;50.232;30.540;2023-02-28T04:25:29;101743.84;;;0.16;76.24
49801;BME280;35698;50.232;30.540;2023-02-28T04:26:34;101735.98;;;0.10;76.00
49801;BME280;35698;50.232;30.540;2023-02-28T04:27:45;101742.86;;;0.05;74.88
49801;BME280;35698;50.232;30.540;2023-02-28T04:28:49;101737.34;;;-0.30;76.55
49801;BME280;35698;50.232;30.540;2023-02-28T04:29:52;101734.80;;;-0.24;76.55
49801;BME280;35698;50.232;30.540;2023-02-28T04:31:05;101743.71;;;-0.01;76.63
49801;BME280;35698;50.232;30.540;2023-02-28T04:32:08;101738.33;;;-0.19;76.03
49801;BME280;35698;50.232;30.540;2023-02-28T04:33:19;101734.14;;;-0.05;76.95
49801;BME280;35698;50.232;30.540;2023-02-28T04:34:23;101735.61;;;-0.29;77.14
49801;BME280;35698;50.232;30.540;2023-02-28T04:35:34;101737.61;;;-0.04;77.12
49801;BME280;35698;50.232;30.540;2023-02-28T04:36:38;101737.32;;;-0.31;76.71
49801;BME280;35698;50.232;30.540;2023-02-28T04:37:59;101737.37;;;-0.27;76.28
49801;BME280;35698;50.232;30.540;2023-02-28T04:39:10;101732.19;;;-0.25;77.17
49801;BME280;35698;50.232;30.540;2023-02-28T04:40:15;101739.09;;;-0.27;77.18
49801;BME280;35698;50.232;30.540;2023-02-28T04:41:37;101735.71;;;-0.20;77.23
49801;BME280;35698;50.232;30.540;2023-02-28T04:42:49;101735.05;;;-0.01;77.01
49801;BME280;35698;50.232;30.540;2023-02-28T04:43:52;101736.73;;;-0.05;76.68
49801;BME280;35698;50.232;30.540;2023-02-28T04:45:13;101736.79;;;0.00;75.88
49801;BME280;35698;50.232;30.540;2023-02-28T04:46:27;101739.55;;;0.20;75.86
49801;BME280;35698;50.232;30.540;2023-02-28T04:47:31;101735.14;;;0.13;75.73
49801;BME280;35698;50.232;30.540;2023-02-28T04:48:52;101736.89;;;0.14;74.69
49801;BME280;35698;50.232;30.540;2023-02-28T04:49:56;101739.15;;;-0.23;75.90
49801;BME280;35698;50.232;30.540;2023-02-28T04:51:09;101737.63;;;-0.03;76.33
49801;BME280;35698;50.232;30.540;2023-02-28T04:52:13;101741.00;;;-0.11;75.74
49801;BME280;35698;50.232;30.540;2023-02-28T04:53:38;101743.53;;;-0.17;75.38
49801;BME280;35698;50.232;30.540;2023-02-28T04:54:42;101737.35;;;-0.28;76.65
49801;BME280;35698;50.232;30.540;2023-02-28T04:55:53;101741.84;;;-0.14;77.00
49801;BME280;35698;50.232;30.540;2023-02-28T04:56:56;101741.80;;;-0.18;76.84
49801;BME280;35698;50.232;30.540;2023-02-28T04:58:18;101738.39;;;-0.13;76.70
49801;BME280;35698;50.232;30.540;2023-02-28T04:59:22;101739.30;;;-0.09;76.16
49801;BME280;35698;50.232;30.540;2023-02-28T05:00:25;101741.74;;;-0.23;76.71
49801;BME280;35698;50.232;30.540;2023-02-28T05:01:36;101741.94;;;-0.05;77.27
49801;BME280;35698;50.232;30.540;2023-02-28T05:02:40;101740.03;;;-0.21;77.00
49801;BME280;35698;50.232;30.540;2023-02-28T05:04:03;101733.11;;;-0.20;77.14
49801;BME280;35698;50.232;30.540;2023-02-28T05:05:07;101735.74;;;-0.17;77.63
49801;BME280;35698;50.232;30.540;2023-02-28T05:06:19;101737.63;;;-0.03;77.48
49801;BME280;35698;50.232;30.540;2023-02-28T05:07:23;101746.15;;;-0.16;77.65
49801;BME280;35698;50.232;30.540;2023-02-28T05:08:26;101742.70;;;-0.15;76.86
49801;BME280;35698;50.232;30.540;2023-02-28T05:09:30;101742.73;;;-0.12;76.81
49801;BME280;35698;50.232;30.540;2023-02-28T05:10:41;101744.56;;;0.02;77.06
49801;BME280;35698;50.232;30.540;2023-02-28T05:11:44;101746.29;;;-0.02;77.26
49801;BME280;35698;50.232;30.540;2023-02-28T05:12:48;101748.94;;;0.06;77.51
49801;BME280;35698;50.232;30.540;2023-02-28T05:13:52;101750.73;;;0.13;77.39
49801;BME280;35698;50.232;30.540;2023-02-28T05:15:04;101758.62;;;0.22;76.50
49801;BME280;35698;50.232;30.540;2023-02-28T05:16:08;101751.53;;;0.06;76.28
49801;BME280;35698;50.232;30.540;2023-02-28T05:17:19;101754.23;;;0.16;76.32
49801;BME280;35698;50.232;30.540;2023-02-28T05:18:23;101755.00;;;0.06;76.67
49801;BME280;35698;50.232;30.540;2023-02-28T05:19:26;101753.14;;;-0.10;76.47
49801;BME280;35698;50.232;30.540;2023-02-28T05:20:37;101752.36;;;0.02;77.24
49801;BME280;35698;50.232;30.540;2023-02-28T05:21:48;101759.20;;;-0.10;76.87
49801;BME280;35698;50.232;30.540;2023-02-28T05:22:54;101761.84;;;-0.05;76.96
49801;BME280;35698;50.232;30.540;2023-02-28T05:24:03;101766.04;;;-0.18;77.91
49801;BME280;35698;50.232;30.540;2023-02-28T05:25:13;101757.41;;;-0.15;78.05
49801;BME280;35698;50.232;30.540;2023-02-28T05:26:26;101771.41;;;0.02;77.31
49801;BME280;35698;50.232;30.540;2023-02-28T05:27:30;101760.17;;;0.00;77.78
49801;BME280;35698;50.232;30.540;2023-02-28T05:28:33;101760.16;;;0.02;77.17
49801;BME280;35698;50.232;30.540;2023-02-28T05:29:37;101761.58;;;-0.29;77.19
49801;BME280;35698;50.232;30.540;2023-02-28T05:30:40;101762.63;;;-0.14;77.61
49801;BME280;35698;50.232;30.540;2023-02-28T05:31:51;101764.38;;;-0.11;77.79
49801;BME280;35698;50.232;30.540;2023-02-28T05:32:55;101763.45;;;-0.16;78.64
49801;BME280;35698;50.232;30.540;2023-02-28T05:33:58;101761.73;;;-0.16;78.21
49801;BME280;35698;50.232;30.540;2023-02-28T05:35:11;101760.91;;;-0.12;79.07
49801;BME280;35698;50.232;30.540;2023-02-28T05:36:15;101767.72;;;-0.23;78.63
49801;BME280;35698;50.232;30.540;2023-02-28T05:37:18;101766.79;;;-0.28;79.28
49801;BME280;35698;50.232;30.540;2023-02-28T05:38:29;101772.07;;;-0.20;80.11
49801;BME280;35698;50.232;30.540;2023-02-28T05:39:33;101766.89;;;-0.19;79.54
49801;BME280;35698;50.232;30.540;2023-02-28T05:40:38;101760.98;;;-0.06;79.70
49801;BME280;35698;50.232;30.540;2023-02-28T05:42:04;101773.06;;;-0.09;79.64
49801;BME280;35698;50.232;30.540;2023-02-28T05:43:18;101765.19;;;-0.17;79.25
49801;BME280;35698;50.232;30.540;2023-02-28T05:44:21;101767.73;;;-0.21;78.86
49801;BME280;35698;50.232;30.540;2023-02-28T05:45:32;101772.19;;;-0.10;79.09
49801;BME280;35698;50.232;30.540;2023-02-28T05:46:35;101765.75;;;-0.42;79.54
49801;BME280;35698;50.232;30.540;2023-02-28T05:47:47;101767.75;;;-0.20;79.75
49801;BME280;35698;50.232;30.540;2023-02-28T05:48:50;101768.62;;;-0.19;79.80
49801;BME280;35698;50.232;30.540;2023-02-28T05:49:54;101768.57;;;-0.24;79.04
49801;BME280;35698;50.232;30.540;2023-02-28T05:54:03;101773.80;;;-0.21;77.69
49801;BME280;35698;50.232;30.540;2023-02-28T05:55:07;101780.80;;;-0.14;78.13
49801;BME280;35698;50.232;30.540;2023-02-28T05:56:30;101776.39;;;-0.21;77.92
49801;BME280;35698;50.232;30.540;2023-02-28T05:58:51;101772.80;;;-0.32;79.87
49801;BME280;35698;50.232;30.540;2023-02-28T06:01:39;101776.78;;;-0.60;78.91
49801;BME280;35698;50.232;30.540;2023-02-28T06:02:47;101772.50;;;-0.56;79.75
49801;BME280;35698;50.232;30.540;2023-02-28T06:03:59;101777.16;;;-0.29;78.93
49801;BME280;35698;50.232;30.540;2023-02-28T06:05:03;101782.31;;;-0.32;77.63
49801;BME280;35698;50.232;30.540;2023-02-28T06:06:07;101782.28;;;-0.36;77.44
49801;BME280;35698;50.232;30.540;2023-02-28T06:07:11;101786.69;;;-0.28;77.32
49801;BME280;35698;50.232;30.540;2023-02-28T06:11:04;101777.39;;;-0.10;75.22
49801;BME280;35698;50.232;30.540;2023-02-28T06:13:38;101781.80;;;0.02;74.27
49801;BME280;35698;50.232;30.540;2023-02-28T06:14:49;101782.84;;;0.18;72.74
49801;BME280;35698;50.232;30.540;2023-02-28T06:15:53;101785.24;;;-0.04;72.61
49801;BME280;35698;50.232;30.540;2023-02-28T06:17:14;101775.63;;;-0.12;72.15
49801;BME280;35698;50.232;30.540;2023-02-28T06:18:29;101785.31;;;0.06;72.76
49801;BME280;35698;50.232;30.540;2023-02-28T06:19:33;101787.08;;;0.10;72.73
49801;BME280;35698;50.232;30.540;2023-02-28T06:20:55;101787.05;;;0.07;71.75
49801;BME280;35698;50.232;30.540;2023-02-28T06:22:07;101789.72;;;0.13;72.20
49801;BME280;35698;50.232;30.540;2023-02-28T06:23:23;101788.72;;;-0.03;72.50
49801;BME280;35698;50.232;30.540;2023-02-28T06:24:33;101788.73;;;0.02;72.96
49801;BME280;35698;50.232;30.540;2023-02-28T06:25:55;101795.56;;;-0.10;72.45
49801;BME280;35698;50.232;30.540;2023-02-28T06:27:06;101781.81;;;-0.01;73.28
49801;BME280;35698;50.232;30.540;2023-02-28T06:28:09;101790.47;;;0.03;73.28
49801;BME280;35698;50.232;30.540;2023-02-28T06:29:33;101790.48;;;0.04;73.14
49801;BME280;35698;50.232;30.540;2023-02-28T06:30:54;101788.63;;;-0.11;73.04
49801;BME280;35698;50.232;30.540;2023-02-28T06:32:16;101784.30;;;-0.10;73.45
49801;BME280;35698;50.232;30.540;2023-02-28T06:33:30;101785.87;;;-0.24;74.97
49801;BME280;35698;50.232;30.540;2023-02-28T06:34:33;101775.47;;;-0.26;75.13
49801;BME280;35698;50.232;30.540;2023-02-28T06:35:55;101779.86;;;-0.20;75.38
49801;BME280;35698;50.232;30.540;2023-02-28T06:37:17;101782.31;;;-0.32;75.07
49801;BME280;35698;50.232;30.540;2023-02-28T06:38:28;101785.27;;;-0.01;75.61
49801;BME280;35698;50.232;30.540;2023-02-28T06:39:32;101785.26;;;0.01;74.81
49801;BME280;35698;50.232;30.540;2023-02-28T06:40:55;101785.17;;;-0.10;74.70
49801;BME280;35698;50.232;30.540;2023-02-28T06:42:17;101778.14;;;-0.20;75.32
49801;BME280;35698;50.232;30.540;2023-02-28T06:43:32;101775.59;;;-0.15;75.76
49801;BME280;35698;50.232;30.540;2023-02-28T06:44:39;101780.85;;;-0.09;75.55
49801;BME280;35698;50.232;30.540;2023-02-28T06:45:44;101784.36;;;-0.06;75.80
49801;BME280;35698;50.232;30.540;2023-02-28T06:47:06;101784.33;;;-0.09;74.91
49801;BME280;35698;50.232;30.540;2023-02-28T06:48:18;101783.33;;;-0.20;76.21
49801;BME280;35698;50.232;30.540;2023-02-28T06:49:23;101778.19;;;-0.15;75.97
49801;BME280;35698;50.232;30.540;2023-02-28T06:52:09;101781.92;;;0.13;76.46
49801;BME280;35698;50.232;30.540;2023-02-28T06:53:12;101783.75;;;0.23;76.40
49801;BME280;35698;50.232;30.540;2023-02-28T06:54:36;101782.06;;;0.28;73.88
49801;BME280;35698;50.232;30.540;2023-02-28T06:55:51;101780.48;;;0.44;73.38
49801;BME280;35698;50.232;30.540;2023-02-28T06:56:57;101776.85;;;0.26;72.95
49801;BME280;35698;50.232;30.540;2023-02-28T06:58:24;101785.61;;;0.36;72.67
49801;BME280;35698;50.232;30.540;2023-02-28T06:59:35;101780.40;;;0.35;72.30
49801;BME280;35698;50.232;30.540;2023-02-28T07:00:39;101778.61;;;0.29;72.53
49801;BME280;35698;50.232;30.540;2023-02-28T07:01:50;101783.92;;;0.41;72.14
49801;BME280;35698;50.232;30.540;2023-02-28T07:02:56;101786.44;;;0.32;72.11
49801;BME280;35698;50.232;30.540;2023-02-28T07:29:59;101781.96;;;0.17;72.34
49801;BME280;35698;50.232;30.540;2023-02-28T07:31:11;101780.11;;;0.06;77.01
49801;BME280;35698;50.232;30.540;2023-02-28T07:32:17;101787.00;;;-0.01;76.80
49801;BME280;35698;50.232;30.540;2023-02-28T07:33:31;101785.17;;;-0.10;74.67
49801;BME280;35698;50.232;30.540;2023-02-28T07:34:47;101798.25;;;-0.02;73.94
49801;BME280;35698;50.232;30.540;2023-02-28T07:36:28;101786.09;;;-0.05;75.27
49801;BME280;35698;50.232;30.540;2023-02-28T07:37:42;101792.36;;;0.17;75.48
49801;BME280;35698;50.232;30.540;2023-02-28T07:38:54;101784.52;;;0.13;73.35
49801;BME280;35698;50.232;30.540;2023-02-28T07:40:01;101789.68;;;0.10;72.86
49801;BME280;35698;50.232;30.540;2023-02-28T07:41:12;101788.97;;;0.24;73.64
49801;BME280;35698;50.232;30.540;2023-02-28T07:42:16;101789.74;;;0.16;72.11
49801;BME280;35698;50.232;30.540;2023-02-28T07:43:28;101785.34;;;0.09;72.87
49801;BME280;35698;50.232;30.540;2023-02-28T07:44:37;101782.84;;;0.19;72.91
49801;BME280;35698;50.232;30.540;2023-02-28T07:45:44;101788.21;;;0.36;72.41
49801;BME280;35698;50.232;30.540;2023-02-28T07:46:55;101784.09;;;0.61;72.82